sensor_id;sensor_type;location;lat;lon;timestamp;P1;durP1;ratioP1;P2;durP2;ratioP2
50563;SDS011;36514;52.590;21.448;2023-09-08T07:21:08;1819.07;;;909.94;;
50563;SDS011;36514;52.590;21.448;2023-09-08T07:31:15;1819.02;;;909.88;;
50563;SDS011;36514;52.590;21.448;2023-09-08T07:41:18;1818.95;;;909.82;;
50563;SDS011;36514;52.590;21.448;2023-09-08T07:51:18;1819.03;;;909.89;;
50563;SDS011;36514;52.590;21.448;2023-09-08T08:01:23;1819.03;;;909.89;;
50563;SDS011;36514;52.590;21.448;2023-09-08T08:11:23;1818.99;;;909.85;;
50563;SDS011;36514;52.590;21.448;2023-09-08T08:21:28;1818.94;;;909.81;;
50563;SDS011;36514;52.590;21.448;2023-09-08T08:31:32;1819.02;;;909.88;;
50563;SDS011;36514;52.590;21.448;2023-09-08T08:41:35;1819.02;;;909.88;;
50563;SDS011;36514;52.590;21.448;2023-09-08T08:51:30;1819.05;;;909.91;;
50563;SDS011;36514;52.590;21.448;2023-09-08T09:01:34;1818.95;;;909.83;;
50563;SDS011;36514;52.590;21.448;2023-09-08T09:11:37;1818.91;;;909.78;;
50563;SDS011;36514;52.590;21.448;2023-09-08T09:31:54;1818.93;;;909.80;;
50563;SDS011;36514;52.590;21.448;2023-09-08T09:41:54;1818.92;;;909.79;;
50563;SDS011;36514;52.590;21.448;2023-09-08T09:51:55;1818.99;;;909.85;;
50563;SDS011;36514;52.590;21.448;2023-09-08T10:01:55;1818.93;;;909.80;;
50563;SDS011;36514;52.590;21.448;2023-09-08T10:36:38;1819.00;;;909.86;;
50563;SDS011;36514;52.590;21.448;2023-09-08T10:46:26;1819.02;;;909.88;;
50563;SDS011;36514;52.590;21.448;2023-09-08T11:06:42;1818.99;;;909.85;;
50563;SDS011;36514;52.590;21.448;2023-09-08T11:16:23;1819.01;;;909.87;;
50563;SDS011;36514;52.590;21.448;2023-09-08T11:26:22;1818.99;;;909.85;;
50563;SDS011;36514;52.590;21.448;2023-09-08T11:36:29;1818.97;;;909.84;;
50563;SDS011;36514;52.590;21.448;2023-09-08T11:46:39;1818.89;;;909.76;;
50563;SDS011;36514;52.590;21.448;2023-09-08T11:56:40;1818.90;;;909.77;;
50563;SDS011;36514;52.590;21.448;2023-09-08T12:06:35;1818.95;;;909.83;;
50563;SDS011;36514;52.590;21.448;2023-09-08T12:16:36;1818.89;;;909.76;;
50563;SDS011;36514;52.590;21.448;2023-09-08T12:26:37;1818.93;;;909.80;;
50563;SDS011;36514;52.590;21.448;2023-09-08T12:36:31;1818.87;;;909.75;;
50563;SDS011;36514;52.590;21.448;2023-09-08T12:46:33;1818.91;;;909.78;;
50563;SDS011;36514;52.590;21.448;2023-09-08T12:56:29;1818.69;;;909.57;;
50563;SDS011;36514;52.590;21.448;2023-09-08T13:06:27;1818.92;;;909.79;;
50563;SDS011;36514;52.590;21.448;2023-09-08T13:16:23;1818.93;;;909.80;;
50563;SDS011;36514;52.590;21.448;2023-09-08T13:26:21;1818.94;;;909.81;;
50563;SDS011;36514;52.590;21.448;2023-09-08T13:36:20;1818.95;;;909.82;;
50563;SDS011;36514;52.590;21.448;2023-09-08T13:46:17;1818.92;;;909.79;;
50563;SDS011;36514;52.590;21.448;2023-09-08T13:56:12;1819.00;;;909.86;;
50563;SDS011;36514;52.590;21.448;2023-09-08T14:06:08;1818.97;;;909.84;;
50563;SDS011;36514;52.590;21.448;2023-09-08T14:16:02;1819.05;;;909.92;;
50563;SDS011;36514;52.590;21.448;2023-09-08T14:26:00;1818.98;;;909.85;;
50563;SDS011;36514;52.590;21.448;2023-09-08T14:35:58;1819.03;;;909.89;;
50563;SDS011;36514;52.590;21.448;2023-09-08T14:45:53;1819.03;;;909.89;;
50563;SDS011;36514;52.590;21.448;2023-09-08T14:55:47;1819.00;;;909.86;;
50563;SDS011;36514;52.590;21.448;2023-09-08T15:05:43;1819.01;;;909.87;;
50563;SDS011;36514;52.590;21.448;2023-09-08T15:15:39;1819.01;;;909.87;;
50563;SDS011;36514;52.590;21.448;2023-09-08T15:25:38;1819.00;;;909.86;;
50563;SDS011;36514;52.590;21.448;2023-09-08T15:35:34;1819.02;;;909.88;;
50563;SDS011;36514;52.590;21.448;2023-09-08T15:45:30;1818.98;;;909.85;;
50563;SDS011;36514;52.590;21.448;2023-09-08T15:55:26;1818.96;;;909.83;;
50563;SDS011;36514;52.590;21.448;2023-09-08T16:05:18;1818.99;;;909.85;;
50563;SDS011;36514;52.590;21.448;2023-09-08T16:15:11;1819.02;;;909.88;;
50563;SDS011;36514;52.590;21.448;2023-09-08T16:25:05;1819.10;;;909.96;;
50563;SDS011;36514;52.590;21.448;2023-09-08T16:35:00;1819.11;;;909.97;;
50563;SDS011;36514;52.590;21.448;2023-09-08T16:44:56;1818.80;;;909.67;;
50563;SDS011;36514;52.590;21.448;2023-09-08T16:54:52;1819.15;;;910.01;;
50563;SDS011;36514;52.590;21.448;2023-09-08T17:04:48;1819.15;;;910.02;;
50563;SDS011;36514;52.590;21.448;2023-09-08T17:14:44;1205.69;;;666.73;;
50563;SDS011;36514;52.590;21.448;2023-09-08T17:24:41;1339.40;;;689.75;;
50563;SDS011;36514;52.590;21.448;2023-09-08T17:34:37;882.09;;;491.26;;
50563;SDS011;36514;52.590;21.448;2023-09-08T17:44:34;871.76;;;521.57;;
50563;SDS011;36514;52.590;21.448;2023-09-08T17:54:31;825.22;;;500.28;;
